createdAt,value
2022-12-23T00:00:59.662Z,101260.97
2022-12-23T00:03:27.812Z,101250.88
2022-12-23T00:05:55.674Z,101253.44
2022-12-23T00:08:23.526Z,101243.03
2022-12-23T00:10:52.998Z,101246.16
2022-12-23T00:13:39.585Z,101243.19
2022-12-23T00:16:12.116Z,101243.28
2022-12-23T00:18:39.845Z,101237.47
2022-12-23T00:21:10.733Z,101248.88
2022-12-23T00:23:39.720Z,101230.91
2022-12-23T00:26:07.608Z,101232.31
2022-12-23T00:28:35.450Z,101220.28
2022-12-23T00:31:04.893Z,101215.72
2022-12-23T00:33:37.728Z,101220.06
2022-12-23T00:36:25.251Z,101218.47
2022-12-23T00:39:11.330Z,101216.19
2022-12-23T00:41:57.515Z,101207.50
2022-12-23T00:44:25.123Z,101199.41
2022-12-23T00:46:52.872Z,101194.28
2022-12-23T00:49:39.092Z,101201.22
2022-12-23T00:52:09.266Z,101197.56
2022-12-23T00:54:36.784Z,101187.81
2022-12-23T00:57:04.385Z,101194.94
2022-12-23T00:59:32.096Z,101194.19
2022-12-23T01:02:18.462Z,101201.44
2022-12-23T01:05:04.628Z,101194.34
2022-12-23T01:07:32.647Z,101191.50
2022-12-23T01:10:00.408Z,101189.66
2022-12-23T01:12:28.249Z,101184.13
2022-12-23T01:14:56.098Z,101184.69
2022-12-23T01:17:23.912Z,101183.13
2022-12-23T01:19:51.782Z,101185.75
2022-12-23T01:22:19.469Z,101179.56
2022-12-23T01:24:47.152Z,101177.56
2022-12-23T01:27:14.826Z,101176.72
2022-12-23T01:29:42.452Z,101185.28
2022-12-23T01:32:10.237Z,101177.00
2022-12-23T01:34:37.998Z,101178.13
2022-12-23T01:37:05.890Z,101170.19
2022-12-23T01:39:33.647Z,101170.72
2022-12-23T01:42:20.174Z,101172.47
2022-12-23T01:45:06.177Z,101157.22
2022-12-23T01:47:51.847Z,101161.63
2022-12-23T01:50:30.504Z,101161.91
2022-12-23T01:53:08.052Z,101156.78
2022-12-23T01:55:41.236Z,101160.78
2022-12-23T01:58:21.431Z,101163.53
2022-12-23T02:01:07.743Z,101158.66
2022-12-23T02:03:44.939Z,101155.97
2022-12-23T02:06:51.887Z,101145.56
2022-12-23T02:09:25.278Z,101148.03
2022-12-23T02:12:21.585Z,101150.53
2022-12-23T02:15:46.797Z,101142.47
2022-12-23T02:18:29.522Z,101151.25
2022-12-23T02:21:19.230Z,101145.75
2022-12-23T02:24:11.808Z,101139.41
2022-12-23T02:27:26.013Z,101143.69
2022-12-23T02:30:14.969Z,101142.44
2022-12-23T02:33:12.239Z,101134.59
2022-12-23T02:35:59.825Z,101128.91
2022-12-23T02:38:57.300Z,101135.75
2022-12-23T02:41:49.906Z,101138.00
2022-12-23T02:44:31.320Z,101134.03
2022-12-23T02:47:01.014Z,101142.03
2022-12-23T02:49:36.407Z,101132.31
2022-12-23T02:52:06.200Z,101138.34
2022-12-23T02:54:37.242Z,101132.78
2022-12-23T02:57:05.127Z,101137.63
2022-12-23T02:59:39.778Z,101132.94
2022-12-23T03:02:07.614Z,101131.34
2022-12-23T03:04:35.419Z,101134.03
2022-12-23T03:07:07.731Z,101135.50
2022-12-23T03:09:58.237Z,101134.63
2022-12-23T03:12:52.039Z,101141.75
2022-12-23T03:15:45.772Z,101145.16
2022-12-23T03:18:51.286Z,101136.34
2022-12-23T03:21:37.723Z,101134.44
2022-12-23T03:24:13.165Z,101136.78
2022-12-23T03:26:45.269Z,101134.91
2022-12-23T03:29:21.767Z,101133.31
2022-12-23T03:31:49.354Z,101137.47
2022-12-23T03:34:20.291Z,101131.75
2022-12-23T03:36:49.754Z,101130.34
2022-12-23T03:39:19.926Z,101136.91
2022-12-23T03:41:55.962Z,101128.06
2022-12-23T03:44:28.346Z,101124.66
2022-12-23T03:47:05.280Z,101131.91
2022-12-23T03:49:44.908Z,101122.66
2022-12-23T03:52:20.792Z,101124.94
2022-12-23T03:54:53.321Z,101129.22
2022-12-23T03:57:22.245Z,101121.81
2022-12-23T03:59:51.680Z,101117.84
2022-12-23T04:02:45.595Z,101119.84
2022-12-23T04:05:23.665Z,101114.00
2022-12-23T04:08:00.536Z,101117.53
2022-12-23T04:10:28.214Z,101110.69
2022-12-23T04:12:57.352Z,101107.56
2022-12-23T04:15:25.998Z,101108.88
2022-12-23T04:17:54.019Z,101110.59
2022-12-23T04:20:22.121Z,101104.31
2022-12-23T04:22:49.822Z,101102.75
2022-12-23T04:25:17.705Z,101099.63
2022-12-23T04:27:45.379Z,101092.06
2022-12-23T04:30:14.091Z,101095.59
2022-12-23T04:32:42.419Z,101095.06
2022-12-23T04:35:10.570Z,101089.22
2022-12-23T04:37:38.520Z,101086.81
2022-12-23T04:40:07.050Z,101081.25
2022-12-23T04:42:34.964Z,101086.66
2022-12-23T04:45:03.024Z,101073.53
2022-12-23T04:47:30.908Z,101080.81
2022-12-23T04:49:58.713Z,101085.50
2022-12-23T04:52:26.515Z,101089.47
2022-12-23T04:54:54.238Z,101095.28
2022-12-23T04:57:22.026Z,101092.50
2022-12-23T04:59:49.764Z,101097.59
2022-12-23T05:02:19.783Z,101099.16
2022-12-23T05:04:47.502Z,101093.47
2022-12-23T05:07:15.577Z,101093.75
2022-12-23T05:09:43.361Z,101105.56
2022-12-23T05:12:11.397Z,101108.41
2022-12-23T05:14:39.781Z,101103.25
2022-12-23T05:17:08.183Z,101103.13
2022-12-23T05:19:36.063Z,101099.44
2022-12-23T05:22:03.928Z,101105.81
2022-12-23T05:24:31.627Z,101103.25
2022-12-23T05:27:00.426Z,101114.94
2022-12-23T05:29:28.537Z,101110.09
2022-12-23T05:31:56.265Z,101120.06
2022-12-23T05:34:24.102Z,101110.53
2022-12-23T05:36:51.835Z,101117.22
2022-12-23T05:39:19.546Z,101102.13
2022-12-23T05:41:47.251Z,101108.09
2022-12-23T05:44:15.068Z,101106.38
2022-12-23T05:46:43.017Z,101109.22
2022-12-23T05:49:10.807Z,101107.78
2022-12-23T05:51:38.492Z,101117.34
2022-12-23T05:54:06.190Z,101119.63
2022-12-23T05:56:34.293Z,101124.28
2022-12-23T05:59:02.109Z,101119.03
2022-12-23T06:01:30.070Z,101113.22
2022-12-23T06:03:58.212Z,101113.63
2022-12-23T06:06:25.948Z,101108.03
2022-12-23T06:08:59.340Z,101115.19
2022-12-23T06:11:28.157Z,101115.31
2022-12-23T06:13:55.971Z,101114.59
2022-12-23T06:16:23.773Z,101115.31
2022-12-23T06:18:55.472Z,101115.47
2022-12-23T06:21:23.176Z,101114.59
2022-12-23T06:23:51.390Z,101116.13
2022-12-23T06:26:19.172Z,101121.09
2022-12-23T06:28:46.774Z,101117.00
2022-12-23T06:31:14.704Z,101107.13
2022-12-23T06:33:42.468Z,101121.06
2022-12-23T06:36:10.292Z,101116.63
2022-12-23T06:38:38.403Z,101115.38
2022-12-23T06:41:06.144Z,101114.31
2022-12-23T06:43:33.726Z,101107.69
2022-12-23T06:46:01.345Z,101118.91
2022-12-23T06:48:28.903Z,101114.66
2022-12-23T06:50:56.529Z,101119.44
2022-12-23T06:53:24.123Z,101116.44
2022-12-23T06:56:01.392Z,101108.56
2022-12-23T06:58:30.148Z,101109.91
2022-12-23T07:00:57.974Z,101121.22
2022-12-23T07:03:25.696Z,101110.22
2022-12-23T07:05:54.449Z,101113.22
2022-12-23T07:08:22.204Z,101103.28
2022-12-23T07:10:49.794Z,101110.06
2022-12-23T07:13:17.325Z,101118.41
2022-12-23T07:15:44.949Z,101115.31
2022-12-23T07:18:12.462Z,101119.34
2022-12-23T07:20:40.044Z,101120.84
2022-12-23T07:23:08.008Z,101120.16
2022-12-23T07:25:35.961Z,101125.31
2022-12-23T07:28:03.766Z,101128.75
2022-12-23T07:30:32.198Z,101120.53
2022-12-23T07:32:59.883Z,101124.25
2022-12-23T07:35:27.365Z,101119.38
2022-12-23T07:37:55.750Z,101119.50
2022-12-23T07:40:23.718Z,101121.22
2022-12-23T07:42:57.061Z,101129.06
2022-12-23T07:45:28.515Z,101120.69
2022-12-23T07:47:56.335Z,101118.06
2022-12-23T07:50:24.158Z,101113.94
2022-12-23T07:52:52.359Z,101117.97
2022-12-23T07:55:20.134Z,101114.25
2022-12-23T07:57:51.514Z,101111.47
2022-12-23T08:00:19.313Z,101109.31
2022-12-23T08:02:46.991Z,101112.19
2022-12-23T08:05:15.353Z,101111.16
2022-12-23T08:07:45.173Z,101122.66
2022-12-23T08:10:13.018Z,101117.44
2022-12-23T08:12:40.770Z,101108.06
2022-12-23T08:15:09.465Z,101101.75
2022-12-23T08:17:37.340Z,101111.31
2022-12-23T08:20:05.437Z,101103.25
2022-12-23T08:22:33.288Z,101101.75
2022-12-23T08:25:01.186Z,101105.56
2022-12-23T08:27:28.768Z,101094.69
2022-12-23T08:29:56.323Z,101096.38
2022-12-23T08:32:27.343Z,101093.16
2022-12-23T08:34:57.409Z,101090.25
2022-12-23T08:37:25.297Z,101088.28
2022-12-23T08:39:52.996Z,101099.16
2022-12-23T08:42:20.900Z,101085.34
2022-12-23T08:44:48.533Z,101091.31
2022-12-23T08:47:16.322Z,101088.69
2022-12-23T08:49:44.001Z,101082.22
2022-12-23T08:52:12.856Z,101085.16
2022-12-23T08:54:40.611Z,101079.59
2022-12-23T08:57:08.216Z,101088.34
2022-12-23T08:59:35.938Z,101077.66
2022-12-23T09:02:04.255Z,101078.75
2022-12-23T09:04:32.310Z,101074.34
2022-12-23T09:07:01.654Z,101079.59
2022-12-23T09:09:29.611Z,101079.34
2022-12-23T09:11:57.204Z,101076.72
2022-12-23T09:14:25.331Z,101081.66
2022-12-23T09:16:53.270Z,101069.78
2022-12-23T09:19:20.958Z,101064.03
2022-12-23T09:21:48.921Z,101069.44
2022-12-23T09:24:16.569Z,101066.13
2022-12-23T09:26:44.174Z,101077.72
2022-12-23T09:29:11.742Z,101067.09
2022-12-23T09:31:39.450Z,101069.44
2022-12-23T09:34:07.343Z,101073.38
2022-12-23T09:36:35.230Z,101058.97
2022-12-23T09:39:02.781Z,101064.72
2022-12-23T09:41:30.241Z,101053.44
2022-12-23T09:44:19.616Z,101055.00
2022-12-23T09:46:51.455Z,101052.81
2022-12-23T09:49:19.146Z,101052.09
2022-12-23T09:51:46.944Z,101054.56
2022-12-23T09:54:25.203Z,101043.75
2022-12-23T09:57:16.966Z,101041.50
2022-12-23T10:00:07.128Z,101042.94
2022-12-23T10:03:08.772Z,101044.50
2022-12-23T10:05:44.911Z,101043.28
2022-12-23T10:08:27.937Z,101045.31
2022-12-23T10:11:00.527Z,101041.06
2022-12-23T10:13:32.170Z,101040.69
2022-12-23T10:16:05.201Z,101033.34
2022-12-23T10:18:48.490Z,101041.72
2022-12-23T10:21:35.233Z,101042.66
2022-12-23T10:24:07.492Z,101036.69
2022-12-23T10:26:39.737Z,101034.66
2022-12-23T10:29:19.269Z,101032.00
2022-12-23T10:31:56.925Z,101028.28
2022-12-23T10:34:38.144Z,101019.31
2022-12-23T10:37:11.998Z,101022.97
2022-12-23T10:39:42.623Z,101017.34
2022-12-23T10:42:19.285Z,101022.59
2022-12-23T10:44:54.193Z,101018.22
2022-12-23T10:47:29.188Z,101014.78
2022-12-23T10:50:16.241Z,101013.34
2022-12-23T10:52:45.358Z,101016.72
2022-12-23T10:55:39.404Z,101011.88
2022-12-23T10:58:18.449Z,101015.31
2022-12-23T11:00:52.254Z,101013.59
2022-12-23T11:03:36.997Z,101022.28
2022-12-23T11:06:04.748Z,101017.53
2022-12-23T11:08:32.396Z,101018.75
2022-12-23T11:11:01.469Z,101019.44
2022-12-23T11:13:32.334Z,101010.63
2022-12-23T11:16:19.842Z,101014.13
2022-12-23T11:19:09.673Z,101021.44
2022-12-23T11:21:37.268Z,101011.09
2022-12-23T11:24:25.379Z,101008.56
2022-12-23T11:27:00.977Z,101010.59
2022-12-23T11:29:39.003Z,101005.81
2022-12-23T11:32:35.528Z,101005.81
2022-12-23T11:35:04.149Z,101005.41
2022-12-23T11:37:41.110Z,100996.66
2022-12-23T11:40:21.585Z,100998.63
2022-12-23T11:42:53.541Z,100996.75
2022-12-23T11:45:24.940Z,100996.94
2022-12-23T11:47:52.634Z,101004.91
2022-12-23T11:50:36.966Z,101007.97
2022-12-23T11:53:14.688Z,101003.25
2022-12-23T11:56:00.337Z,101000.72
2022-12-23T11:58:28.965Z,101000.81
2022-12-23T12:01:00.784Z,101010.88
2022-12-23T12:03:32.671Z,101008.16
2022-12-23T12:06:04.215Z,101016.16
2022-12-23T12:08:36.743Z,101008.63
2022-12-23T12:11:17.001Z,101001.50
2022-12-23T12:13:48.732Z,101017.28
2022-12-23T12:16:31.684Z,101009.66
2022-12-23T12:19:05.671Z,101001.28
2022-12-23T12:21:36.972Z,101003.72
2022-12-23T12:24:25.677Z,101013.00
2022-12-23T12:26:54.852Z,101007.63
2022-12-23T12:29:45.829Z,101012.56
2022-12-23T12:33:05.857Z,101013.88
2022-12-23T12:35:53.996Z,101016.00
2022-12-23T12:38:26.212Z,101015.88
2022-12-23T12:41:00.467Z,101017.59
2022-12-23T12:43:31.799Z,101017.06
2022-12-23T12:46:20.025Z,101018.59
2022-12-23T12:48:59.919Z,101020.94
2022-12-23T12:51:42.790Z,101012.66
2022-12-23T12:54:22.986Z,101015.44
2022-12-23T12:56:58.181Z,101009.34
2022-12-23T12:59:28.539Z,101014.81
2022-12-23T13:02:10.833Z,101007.72
2022-12-23T13:04:48.066Z,101010.34
2022-12-23T13:07:24.498Z,101007.63
2022-12-23T13:10:00.272Z,101012.19
2022-12-23T13:12:44.829Z,101010.81
2022-12-23T13:15:24.331Z,101006.38
2022-12-23T13:18:01.921Z,101002.41
2022-12-23T13:20:41.110Z,100999.31
2022-12-23T13:23:41.629Z,100995.63
2022-12-23T13:26:18.898Z,101005.78
2022-12-23T13:28:48.954Z,100996.22
